Time;durP1;ratioP1;P1;durP2;ratioP2;P2;SDS_P1;SDS_P2;PMS_P1;PMS_P2;Temp;Humidity;BMP_temperature;BMP_pressure;BME280_temperature;BME280_humidity;BME280_pressure;Samples;Min_cycle;Max_cycle;Signal;HPM_P1;HPM_P2
2022/07/01 00:00:43;;;;;;;14.25;11.43;;;24.80;99.90;;;;;;2622005;46;20038;31
2022/07/01 00:03:24;;;;;;;14.97;11.33;;;24.90;99.90;;;;;;2622226;46;20747;31
2022/07/01 00:06:01;;;;;;;15.40;11.93;;;24.70;99.90;;;;;;2603284;54;20030;31
2022/07/01 00:08:35;;;;;;;13.48;12.15;;;24.70;99.90;;;;;;2603606;54;20739;31
2022/07/01 00:11:11;;;;;;;13.55;11.95;;;24.60;99.90;;;;;;2764572;31;20034;31
2022/07/01 00:13:45;;;;;;;15.98;12.43;;;24.50;99.90;;;;;;2603397;54;20784;31
2022/07/01 00:16:21;;;;;;;14.48;12.63;;;24.40;99.90;;;;;;2603495;54;20848;31
2022/07/01 00:19:01;;;;;;;13.10;11.60;;;24.40;99.90;;;;;;2603613;54;20777;31
2022/07/01 00:21:39;;;;;;;14.18;11.82;;;24.30;99.90;;;;;;2603348;54;20030;31
2022/07/01 00:24:12;;;;;;;15.23;11.90;;;24.30;99.90;;;;;;2621795;46;22351;31
2022/07/01 00:26:47;;;;;;;13.40;10.57;;;24.20;99.90;;;;;;2603336;54;20854;31
2022/07/01 00:29:25;;;;;;;12.40;10.45;;;24.10;99.90;;;;;;2621718;46;20089;31
2022/07/01 00:32:02;;;;;;;11.88;10.68;;;24.10;99.90;;;;;;2621829;46;20148;31
2022/07/01 00:34:41;;;;;;;12.60;11.33;;;24.00;99.90;;;;;;2622023;46;20846;31
2022/07/01 00:37:20;;;;;;;13.30;11.50;;;24.10;99.90;;;;;;2603234;54;20253;31
2022/07/01 00:39:58;;;;;;;14.90;12.40;;;24.00;99.90;;;;;;2622117;46;20238;31
2022/07/01 00:42:35;;;;;;;15.80;11.80;;;23.90;99.90;;;;;;2603333;54;20034;31
2022/07/01 00:45:13;;;;;;;13.73;10.90;;;23.90;99.90;;;;;;2621736;46;20034;31
2022/07/01 00:47:48;;;;;;;13.02;10.60;;;23.80;99.90;;;;;;2603286;54;20723;31
2022/07/01 00:50:27;;;;;;;12.40;10.65;;;23.80;99.90;;;;;;2603493;54;20892;31
2022/07/01 00:53:03;;;;;;;12.32;10.90;;;23.80;99.90;;;;;;2603577;54;20035;31
2022/07/01 00:55:39;;;;;;;13.90;12.50;;;23.70;99.90;;;;;;2621548;46;21600;31
2022/07/01 00:58:16;;;;;;;14.48;11.48;;;23.70;99.90;;;;;;2602413;54;20956;31
2022/07/01 01:00:52;;;;;;;12.77;11.60;;;23.70;99.90;;;;;;2621538;46;20057;31
2022/07/01 01:03:29;;;;;;;12.95;11.68;;;23.70;99.90;;;;;;2603158;54;20034;31
2022/07/01 01:06:08;;;;;;;13.60;11.98;;;23.70;99.90;;;;;;2621867;46;20918;31
2022/07/01 01:08:45;;;;;;;13.52;12.32;;;23.60;99.90;;;;;;2603209;54;20048;31
2022/07/01 01:11:21;;;;;;;12.80;11.50;;;23.60;99.90;;;;;;2621686;46;21001;31
2022/07/01 01:14:00;;;;;;;14.57;12.93;;;23.60;99.90;;;;;;2603185;54;20925;31
2022/07/01 01:16:37;;;;;;;18.67;13.88;;;23.50;99.90;;;;;;2603274;54;21611;31
2022/07/01 01:19:14;;;;;;;13.90;12.50;;;23.50;99.90;;;;;;2773119;31;20485;31
2022/07/01 01:21:51;;;;;;;12.98;11.80;;;23.50;99.90;;;;;;2603354;54;20242;31
2022/07/01 01:24:26;;;;;;;13.35;11.90;;;23.50;99.90;;;;;;2603211;54;20042;31
2022/07/01 01:26:59;;;;;;;14.30;12.88;;;23.50;99.90;;;;;;2603166;54;22390;31
2022/07/01 01:29:35;;;;;;;13.75;11.10;;;23.50;99.90;;;;;;2602967;54;20026;31
2022/07/01 01:32:11;;;;;;;13.98;12.52;;;23.50;99.90;;;;;;2701745;39;20564;31
2022/07/01 01:34:47;;;;;;;13.87;12.53;;;23.30;99.90;;;;;;2603156;54;20026;31
2022/07/01 01:37:24;;;;;;;16.30;12.65;;;23.30;99.90;;;;;;2603243;54;20905;31
2022/07/01 01:40:01;;;;;;;14.75;11.75;;;23.30;99.90;;;;;;2603211;54;20789;31
2022/07/01 01:42:36;;;;;;;16.53;12.67;;;23.30;99.90;;;;;;2602799;54;20144;31
2022/07/01 01:45:13;;;;;;;11.95;10.77;;;23.20;99.90;;;;;;2602455;54;20785;31
2022/07/01 01:47:48;;;;;;;15.13;12.50;;;23.20;99.90;;;;;;2701587;39;20425;31
2022/07/01 01:50:23;;;;;;;;;;;23.10;99.90;;;;;;2603437;54;21115;31
2022/07/01 01:53:03;;;;;;;13.30;11.55;;;23.10;99.90;;;;;;2603026;54;19957;31
2022/07/01 01:55:36;;;;;;;14.75;12.60;;;23.00;99.90;;;;;;2603024;54;20026;31
2022/07/01 01:58:13;;;;;;;14.43;12.98;;;23.00;99.90;;;;;;2603135;54;20038;31
2022/07/01 02:00:49;;;;;;;;;;;22.90;99.90;;;;;;2603228;54;20026;31
2022/07/01 02:03:24;;;;;;;16.80;11.93;;;22.90;99.90;;;;;;2603252;54;20635;31
2022/07/01 02:05:59;;;;;;;16.45;13.20;;;22.90;99.90;;;;;;2621470;46;20027;31
2022/07/01 02:08:38;;;;;;;13.00;11.70;;;22.80;99.90;;;;;;2602965;54;20031;31
2022/07/01 02:11:13;;;;;;;14.95;11.43;;;22.80;99.90;;;;;;2603107;54;20897;31
2022/07/01 02:13:50;;;;;;;15.05;12.85;;;22.70;99.90;;;;;;2603078;54;20022;31
2022/07/01 02:16:31;;;;;;;12.93;11.63;;;22.70;99.90;;;;;;2621576;46;20265;31
2022/07/01 02:19:06;;;;;;;13.90;12.48;;;22.70;99.90;;;;;;2621427;46;20988;31
2022/07/01 02:21:41;;;;;;;16.65;12.95;;;22.70;99.90;;;;;;2602998;54;20162;31
2022/07/01 02:24:22;;;;;;;13.65;12.43;;;22.70;99.90;;;;;;2603122;54;20745;31
2022/07/01 02:26:57;;;;;;;13.60;11.70;;;22.60;99.90;;;;;;2603090;54;21434;31
2022/07/01 02:29:34;;;;;;;12.13;10.75;;;22.50;99.90;;;;;;2602881;54;20846;31
2022/07/01 02:32:09;;;;;;;14.88;12.45;;;22.60;99.90;;;;;;2602964;54;20735;31
2022/07/01 02:34:51;;;;;;;13.53;11.00;;;22.50;99.90;;;;;;2602849;54;20038;31
2022/07/01 02:37:25;;;;;;;14.40;12.85;;;22.50;99.90;;;;;;2602909;54;20085;31
2022/07/01 02:40:09;;;;;;;15.88;11.75;;;22.40;99.90;;;;;;2700957;39;21356;31
2022/07/01 02:42:44;;;;;;;14.07;12.57;;;22.50;99.90;;;;;;2602783;54;20969;31
2022/07/01 02:45:21;;;;;;;15.30;11.73;;;22.40;99.90;;;;;;2603035;54;20030;31
2022/07/01 02:47:56;;;;;;;13.80;11.73;;;22.40;99.90;;;;;;2602557;54;20034;31
2022/07/01 02:50:33;;;;;;;15.73;12.00;;;22.40;99.90;;;;;;2620545;46;20038;31
2022/07/01 02:53:14;;;;;;;12.50;10.07;;;22.40;99.90;;;;;;2603077;54;21453;31
2022/07/01 02:55:52;;;;;;;12.83;11.53;;;22.40;99.90;;;;;;2602147;54;20029;31
2022/07/01 02:58:30;;;;;;;13.60;11.80;;;22.40;99.90;;;;;;2602708;54;20057;31
2022/07/01 03:01:04;;;;;;;12.45;11.15;;;22.30;99.90;;;;;;2601876;54;20143;31
2022/07/01 03:03:40;;;;;;;15.05;11.15;;;22.30;99.90;;;;;;2621257;46;20941;31
2022/07/01 03:06:17;;;;;;;13.77;11.85;;;22.30;99.90;;;;;;2621224;46;20086;31
2022/07/01 03:08:53;;;;;;;16.40;12.43;;;22.30;99.90;;;;;;2602600;54;20873;31
2022/07/01 03:11:34;;;;;;;13.25;11.00;;;22.30;99.90;;;;;;2602883;54;20033;31
2022/07/01 03:14:11;;;;;;;11.50;10.30;;;22.30;99.90;;;;;;2602819;54;20034;31
2022/07/01 03:16:47;;;;;;;16.02;12.05;;;22.30;99.90;;;;;;2621147;47;20085;31
2022/07/01 03:19:21;;;;;;;13.23;10.50;;;22.30;99.90;;;;;;2602644;54;20050;31
2022/07/01 03:21:57;;;;;;;13.07;10.98;;;22.30;99.90;;;;;;2602841;54;20897;31
2022/07/01 03:24:31;;;;;;;;;;;22.30;99.90;;;;;;2602937;54;20030;31
2022/07/01 03:27:09;;;;;;;12.68;10.65;;;22.40;99.90;;;;;;2602627;54;19939;31
2022/07/01 03:29:44;;;;;;;13.45;11.70;;;22.40;99.90;;;;;;2606780;47;20782;31
2022/07/01 03:32:20;;;;;;;14.45;11.57;;;22.50;99.90;;;;;;2603299;54;20940;31
2022/07/01 03:34:58;;;;;;;14.00;11.45;;;22.50;99.90;;;;;;2603581;54;20026;31
2022/07/01 03:37:37;;;;;;;14.30;12.00;;;22.60;99.90;;;;;;2603487;54;20093;31
2022/07/01 03:40:19;;;;;;;13.60;11.80;;;22.60;99.90;;;;;;2603321;54;20202;31
2022/07/01 03:43:00;;;;;;;11.60;10.40;;;22.70;99.90;;;;;;2603441;54;20030;31
2022/07/01 03:45:35;;;;;;;12.38;10.18;;;22.80;99.90;;;;;;2603698;54;20921;31
2022/07/01 03:48:12;;;;;;;11.85;10.75;;;22.90;99.90;;;;;;2603472;54;20120;31
2022/07/01 03:50:46;;;;;;;10.95;9.95;;;22.90;99.90;;;;;;2622258;46;20842;31
2022/07/01 03:56:23;;;;;;;11.30;10.10;;;23.10;99.90;;;;;;2603324;54;20030;31
2022/07/01 03:59:03;;;;;;;12.50;9.90;;;23.20;99.90;;;;;;2618882;46;20022;31
2022/07/01 04:01:39;;;;;;;15.07;10.90;;;23.30;99.90;;;;;;2603249;54;20035;31
2022/07/01 04:04:16;;;;;;;11.50;10.27;;;23.40;99.90;;;;;;2603363;54;20116;31
2022/07/01 04:06:52;;;;;;;11.63;9.77;;;23.60;99.90;;;;;;2603451;54;20749;31
2022/07/01 04:09:31;;;;;;;23.60;11.00;;;23.70;99.90;;;;;;2602853;54;20877;31
2022/07/01 04:12:08;;;;;;;16.85;11.38;;;23.90;99.90;;;;;;2622210;46;20938;31
2022/07/01 04:14:45;;;;;;;13.45;9.93;;;24.00;99.90;;;;;;2603347;54;20790;31
2022/07/01 04:17:22;;;;;;;14.80;10.35;;;24.30;99.90;;;;;;2621807;46;20944;31
2022/07/01 04:19:57;;;;;;;11.23;10.13;;;24.40;99.90;;;;;;2621844;46;20030;31
2022/07/01 04:22:33;;;;;;;12.55;11.35;;;24.40;99.90;;;;;;2603217;54;20033;31
2022/07/01 04:25:12;;;;;;;12.18;10.70;;;24.60;99.90;;;;;;2603234;54;20027;31
2022/07/01 04:27:46;;;;;;;15.25;11.23;;;24.80;99.90;;;;;;2603498;54;20952;31
2022/07/01 04:30:25;;;;;;;14.18;11.73;;;24.90;99.90;;;;;;2603531;54;20858;31
2022/07/01 04:33:03;;;;;;;12.60;11.15;;;24.90;99.90;;;;;;2603252;54;20030;31
2022/07/01 04:35:36;;;;;;;14.30;10.20;;;25.00;99.90;;;;;;2603304;54;22434;31
2022/07/01 04:38:15;;;;;;;14.50;11.43;;;25.10;99.90;;;;;;2603148;54;20068;31
2022/07/01 04:43:19;;;;;;;14.10;10.70;;;25.30;99.90;;;;;;2603009;54;22347;31
2022/07/01 04:46:06;;;;;;;14.90;11.18;;;25.50;99.90;;;;;;2603420;54;20928;31
2022/07/01 04:48:41;;;;;;;16.13;11.80;;;25.60;99.90;;;;;;2621675;46;20052;31
2022/07/01 04:51:16;;;;;;;15.27;11.13;;;25.70;99.90;;;;;;2603360;54;20740;31
2022/07/01 04:53:51;;;;;;;12.90;11.15;;;25.60;99.90;;;;;;2603393;54;20890;31
2022/07/01 04:56:33;;;;;;;15.98;11.20;;;25.50;99.90;;;;;;2603156;54;20859;31
2022/07/01 04:59:13;;;;;;;17.10;12.27;;;25.40;99.90;;;;;;2621711;46;20037;31
2022/07/01 05:01:52;;;;;;;12.77;11.25;;;25.40;99.90;;;;;;2621762;46;20033;31
2022/07/01 05:04:28;;;;;;;15.13;12.60;;;25.50;99.90;;;;;;2603227;54;20042;31
2022/07/01 05:07:03;;;;;;;12.35;11.07;;;25.60;99.90;;;;;;2620626;46;20887;31
2022/07/01 05:09:38;;;;;;;14.90;12.48;;;25.70;99.90;;;;;;2602544;54;20107;31
2022/07/01 05:12:14;;;;;;;15.40;11.90;;;25.60;99.90;;;;;;2602229;54;20034;31
2022/07/01 05:14:49;;;;;;;17.17;12.93;;;25.70;99.90;;;;;;2602393;54;20023;31
2022/07/01 05:21:55;;;;;;;16.45;12.68;;;25.80;99.90;;;;;;2603068;54;20112;31
2022/07/01 05:23:25;;;;;;;17.25;11.60;;;26.30;99.90;;;;;;2602792;54;20053;31
2022/07/01 05:26:02;;;;;;;14.45;12.15;;;26.50;99.90;;;;;;2603146;54;20069;31
2022/07/01 05:28:36;;;;;;;13.80;10.85;;;26.70;99.90;;;;;;2602966;54;20030;31
2022/07/01 05:31:12;;;;;;;13.98;12.35;;;26.80;99.90;;;;;;2621739;46;20923;31
2022/07/01 05:33:54;;;;;;;15.20;11.55;;;27.00;99.90;;;;;;2603052;54;20030;31
2022/07/01 05:36:33;;;;;;;16.20;12.30;;;27.10;99.90;;;;;;2603193;54;20053;31
2022/07/01 05:39:11;;;;;;;15.18;11.63;;;27.30;99.90;;;;;;2621565;46;20026;31
2022/07/01 05:41:46;;;;;;;12.60;11.20;;;27.50;99.90;;;;;;2701248;39;21355;31
2022/07/01 05:44:23;;;;;;;11.40;10.18;;;27.60;99.90;;;;;;2772033;31;20567;31
2022/07/01 05:46:59;;;;;;;13.70;11.30;;;27.80;99.90;;;;;;2602063;54;20089;31
2022/07/01 05:49:39;;;;;;;16.70;10.90;;;27.80;99.90;;;;;;2603031;54;20041;31
2022/07/01 05:52:17;;;;;;;17.05;11.32;;;28.10;99.90;;;;;;2603243;54;20766;31
2022/07/01 05:54:51;;;;;;;14.20;11.55;;;28.00;99.90;;;;;;2603127;54;20035;31
2022/07/01 05:57:26;;;;;;;16.92;11.20;;;27.90;99.90;;;;;;2701312;39;20502;31
2022/07/01 06:00:02;;;;;;;14.00;10.90;;;27.90;99.90;;;;;;2602866;54;20913;31
2022/07/01 06:02:44;;;;;;;13.03;11.13;;;28.00;99.90;;;;;;2602843;54;20033;31
2022/07/01 06:05:23;;;;;;;18.60;11.40;;;28.30;99.90;;;;;;2701377;39;21315;31
2022/07/01 06:08:01;;;;;;;12.32;10.93;;;28.40;99.90;;;;;;2603069;54;20026;31
2022/07/01 06:10:37;;;;;;;16.60;11.60;;;28.60;99.90;;;;;;2602890;54;20034;31
2022/07/01 06:13:14;;;;;;;15.40;11.07;;;28.80;99.90;;;;;;2603187;54;20030;31
2022/07/01 06:15:49;;;;;;;12.52;11.23;;;29.00;99.90;;;;;;2602768;54;20834;31
2022/07/01 06:18:21;;;;;;;;;;;29.20;99.90;;;;;;2603019;54;21163;31
2022/07/01 06:21:00;;;;;;;13.70;11.23;;;29.50;99.90;;;;;;2620407;46;20501;31
2022/07/01 06:23:37;;;;;;;13.38;10.52;;;29.60;99.90;;;;;;2602643;54;20903;31
2022/07/01 06:26:13;;;;;;;11.93;10.00;;;29.60;99.90;;;;;;2602839;54;20022;31
2022/07/01 06:28:48;;;;;;;16.83;11.45;;;29.80;99.90;;;;;;2602791;54;20057;31
2022/07/01 06:31:23;;;;;;;17.25;10.27;;;29.90;99.90;;;;;;2602782;54;20026;31
2022/07/01 06:33:58;;;;;;;;;;;30.10;99.90;;;;;;2603012;54;20026;31
2022/07/01 06:36:37;;;;;;;14.43;10.95;;;30.20;99.90;;;;;;2602461;54;20797;31
2022/07/01 06:39:14;;;;;;;14.32;10.40;;;30.30;99.90;;;;;;2602703;54;20104;31
2022/07/01 06:41:49;;;;;;;14.18;10.70;;;30.50;99.90;;;;;;2617077;46;20866;31
2022/07/01 06:44:23;;;;;;;;;;;30.60;99.90;;;;;;2602881;54;20103;31
2022/07/01 06:47:00;;;;;;;16.90;10.68;;;30.70;99.90;;;;;;2602532;54;20794;31
2022/07/01 06:49:35;;;;;;;16.98;13.20;;;30.90;99.90;;;;;;2602647;54;20038;31
2022/07/01 06:52:15;;;;;;;16.52;12.00;;;31.00;99.90;;;;;;2602803;54;20039;31
2022/07/01 06:54:50;;;;;;;18.13;11.82;;;31.20;99.90;;;;;;2620947;46;20780;31
2022/07/01 06:57:26;;;;;;;19.17;11.98;;;31.30;99.90;;;;;;2601911;54;20751;31
2022/07/01 07:00:01;;;;;;;22.93;11.87;;;31.50;99.90;;;;;;2602102;54;20041;31
2022/07/01 07:02:36;;;;;;;18.00;11.95;;;31.70;99.90;;;;;;2602667;54;20877;31
2022/07/01 07:05:12;;;;;;;;;;;32.00;99.90;;;;;;2603102;54;20961;31
2022/07/01 07:07:50;;;;;;;16.85;11.50;;;32.00;99.90;;;;;;2621450;47;19934;31
2022/07/01 07:10:26;;;;;;;18.30;11.20;;;32.20;99.90;;;;;;2602114;54;21426;31
2022/07/01 07:13:03;;;;;;;21.13;12.13;;;32.30;99.90;;;;;;2603059;54;20863;31
2022/07/01 07:15:41;;;;;;;15.05;11.43;;;32.50;99.90;;;;;;2621250;46;20769;31
2022/07/01 07:18:18;;;;;;;15.18;11.40;;;32.60;99.90;;;;;;2700656;39;20490;31
2022/07/01 07:20:54;;;;;;;12.43;10.50;;;32.70;99.90;;;;;;2602641;54;21434;31
2022/07/01 07:23:39;;;;;;;13.57;10.82;;;32.80;99.90;;;;;;2621032;47;20932;31
2022/07/01 07:26:13;;;;;;;17.60;10.95;;;32.90;99.90;;;;;;2603136;54;20772;31
2022/07/01 07:28:51;;;;;;;12.20;9.75;;;33.00;99.90;;;;;;2602766;54;20965;31
2022/07/01 07:31:26;;;;;;;15.23;11.18;;;33.20;99.90;;;;;;2621450;47;20034;31
2022/07/01 07:34:02;;;;;;;14.70;10.18;;;33.30;99.90;;;;;;2603102;54;20132;31
2022/07/01 07:36:40;;;;;;;14.15;10.65;;;33.40;99.90;;;;;;2602936;54;20048;31
2022/07/01 07:39:19;;;;;;;12.38;10.80;;;33.40;99.90;;;;;;2602845;54;21410;31
2022/07/01 07:41:57;;;;;;;12.60;10.95;;;33.50;99.90;;;;;;2602311;54;20088;31
2022/07/01 07:44:34;;;;;;;14.63;10.67;;;33.60;99.90;;;;;;2601994;54;20061;31
2022/07/01 07:47:10;;;;;;;13.90;10.40;;;33.50;99.90;;;;;;2602993;54;20967;31
2022/07/01 07:49:48;;;;;;;14.98;10.52;;;33.40;99.90;;;;;;2621256;47;20045;31
2022/07/01 07:52:23;;;;;;;13.77;10.38;;;33.40;99.90;;;;;;2602935;54;20082;31
2022/07/01 07:55:00;;;;;;;15.75;9.48;;;33.50;99.90;;;;;;2602694;54;20019;31
2022/07/01 07:57:43;;;;;;;18.23;10.55;;;33.70;99.90;;;;;;2621416;47;20760;31
2022/07/01 08:00:24;;;;;;;12.95;8.88;;;33.80;99.90;;;;;;2602715;54;20508;31
2022/07/01 08:03:03;;;;;;;11.98;9.02;;;33.90;99.90;;;;;;2621101;47;20026;31
2022/07/01 08:05:40;;;;;;;12.85;9.27;;;34.10;99.90;;;;;;2602699;54;20034;31
2022/07/01 08:08:17;;;;;;;14.05;10.38;;;34.10;99.90;;;;;;2602904;54;22442;31
2022/07/01 08:10:55;;;;;;;14.40;10.38;;;34.00;99.90;;;;;;2602749;54;20840;31
2022/07/01 08:13:35;;;;;;;12.68;10.68;;;34.10;99.90;;;;;;2621487;47;20128;31
2022/07/01 08:16:11;;;;;;;10.63;9.30;;;34.30;99.90;;;;;;2621449;47;20036;31
2022/07/01 08:18:49;;;;;;;15.93;10.57;;;34.50;99.90;;;;;;2602575;54;21437;31
2022/07/01 08:21:31;;;;;;;15.55;10.85;;;34.70;99.90;;;;;;2603852;54;20033;31
2022/07/01 08:24:06;;;;;;;10.85;9.70;;;34.90;99.90;;;;;;2621718;46;20986;31
2022/07/01 08:26:40;;;;;;;13.57;10.45;;;35.00;99.90;;;;;;2603441;54;20076;31
2022/07/01 08:29:21;;;;;;;15.07;9.17;;;35.10;99.90;;;;;;2621891;46;20642;31
2022/07/01 08:32:02;;;;;;;11.88;10.45;;;35.30;99.90;;;;;;2603691;54;20058;31
2022/07/01 08:34:37;;;;;;;15.00;9.90;;;35.40;99.60;;;;;;2603852;54;20863;31
2022/07/01 08:37:11;;;;;;;;;;;35.40;99.90;;;;;;2603753;54;20064;31
2022/07/01 08:39:45;;;;;;;12.13;10.53;;;35.70;99.90;;;;;;2702001;39;21298;31
2022/07/01 08:42:20;;;;;;;19.50;11.05;;;35.80;99.50;;;;;;2621930;46;20033;31
2022/07/01 08:44:59;;;;;;;15.40;11.35;;;35.60;99.90;;;;;;2603705;54;20089;31
2022/07/01 08:47:37;;;;;;;13.00;11.00;;;35.50;99.10;;;;;;2622238;46;20865;31
2022/07/01 08:50:12;;;;;;;14.50;10.73;;;35.40;99.90;;;;;;2602755;54;20041;31
2022/07/01 08:52:47;;;;;;;13.05;9.90;;;35.40;99.90;;;;;;2701938;39;21300;31
2022/07/01 08:55:22;;;;;;;11.73;10.50;;;35.40;99.60;;;;;;2622070;46;20030;31
2022/07/01 08:57:57;;;;;;;11.27;9.35;;;35.40;99.50;;;;;;2621682;46;20882;31
2022/07/01 09:00:38;;;;;;;13.85;9.90;;;35.20;99.30;;;;;;2621969;46;20041;31
2022/07/01 09:03:13;;;;;;;11.85;10.52;;;35.10;99.90;;;;;;2603718;54;20018;31
2022/07/01 09:05:52;;;;;;;13.32;9.50;;;35.10;99.80;;;;;;2603218;54;20026;31
2022/07/01 09:08:29;;;;;;;10.85;9.75;;;35.20;99.90;;;;;;2603316;54;20883;31
2022/07/01 09:11:16;;;;;;;16.45;10.40;;;35.40;99.90;;;;;;2603605;54;20040;31
2022/07/01 09:14:08;;;;;;;13.93;10.60;;;35.50;99.90;;;;;;2622214;46;20891;31
2022/07/01 09:16:48;;;;;;;13.80;11.15;;;35.40;99.90;;;;;;2603781;54;20589;31
2022/07/01 09:19:25;;;;;;;12.25;10.85;;;35.30;99.80;;;;;;2792046;31;21364;31
2022/07/01 09:22:02;;;;;;;12.18;9.95;;;35.40;99.80;;;;;;2603296;54;20054;31
2022/07/01 09:24:39;;;;;;;11.25;10.13;;;35.30;99.90;;;;;;2603420;54;21419;31
2022/07/01 09:27:16;;;;;;;11.20;10.20;;;35.20;99.80;;;;;;2603648;54;20049;31
2022/07/01 09:29:53;;;;;;;12.32;11.13;;;35.40;99.60;;;;;;2720125;39;21476;31
2022/07/01 09:32:32;;;;;;;13.23;10.48;;;35.60;99.70;;;;;;2603522;54;20030;31
2022/07/01 09:35:08;;;;;;;14.45;10.90;;;35.60;99.90;;;;;;2603506;54;20743;31
2022/07/01 09:37:44;;;;;;;11.80;10.65;;;35.80;99.00;;;;;;2603115;54;20026;31
2022/07/01 09:40:19;;;;;;;10.90;9.90;;;36.00;99.80;;;;;;2603483;54;20866;31
2022/07/01 09:42:53;;;;;;;;;;;36.30;98.40;;;;;;2603429;54;20050;31
2022/07/01 09:45:33;;;;;;;11.60;9.90;;;36.30;97.50;;;;;;2604231;46;20520;31
2022/07/01 09:48:13;;;;;;;11.82;10.30;;;36.20;97.50;;;;;;2602486;54;20027;31
2022/07/01 09:50:48;;;;;;;12.85;8.90;;;36.10;96.80;;;;;;2622078;46;20868;31
2022/07/01 09:53:23;;;;;;;9.13;8.32;;;35.90;98.20;;;;;;2603500;54;20034;31
2022/07/01 09:55:59;;;;;;;11.10;9.43;;;35.60;97.50;;;;;;2602729;54;20734;31
2022/07/01 09:58:37;;;;;;;10.13;8.80;;;35.40;98.70;;;;;;2603674;54;20027;31
2022/07/01 10:01:13;;;;;;;10.40;9.40;;;35.20;97.70;;;;;;2603203;54;20963;31
2022/07/01 10:03:53;;;;;;;10.85;9.75;;;35.20;98.00;;;;;;2603301;54;20053;31
2022/07/01 10:06:40;;;;;;;14.38;8.93;;;35.00;97.50;;;;;;2603222;54;20986;31
2022/07/01 10:09:16;;;;;;;11.55;9.85;;;34.90;97.00;;;;;;2621919;46;20026;31
2022/07/01 10:12:15;;;;;;;10.45;9.45;;;34.80;97.70;;;;;;2603291;54;20030;31
2022/07/01 10:14:50;;;;;;;11.27;10.20;;;34.80;97.60;;;;;;2621952;46;20052;31
2022/07/01 10:17:31;;;;;;;11.65;9.15;;;34.70;97.10;;;;;;2602507;54;20030;31
2022/07/01 10:20:15;;;;;;;11.80;9.57;;;34.70;97.10;;;;;;2602689;54;20038;31
2022/07/01 10:23:03;;;;;;;9.55;8.55;;;34.50;97.00;;;;;;2603212;54;20093;31
2022/07/01 10:25:43;;;;;;;9.93;9.02;;;34.50;97.70;;;;;;2602887;54;20064;31
2022/07/01 10:28:26;;;;;;;10.40;9.50;;;34.50;97.40;;;;;;2603158;54;20569;31
2022/07/01 10:31:05;;;;;;;11.38;10.38;;;34.60;99.50;;;;;;2602650;54;20246;31
2022/07/01 10:33:59;;;;;;;10.93;9.75;;;34.80;99.20;;;;;;2602210;54;20843;31
2022/07/01 10:36:44;;;;;;;9.93;8.95;;;35.10;98.60;;;;;;2603166;54;20097;31
2022/07/01 10:39:22;;;;;;;10.20;9.20;;;35.30;98.20;;;;;;2603088;54;20829;31
2022/07/01 10:42:25;;;;;;;9.85;8.95;;;35.40;98.50;;;;;;2621486;46;20043;31
2022/07/01 10:45:15;;;;;;;10.45;9.45;;;35.60;97.80;;;;;;2615972;46;20143;31
2022/07/01 10:47:51;;;;;;;9.45;8.50;;;35.70;97.90;;;;;;2621598;46;20053;31
2022/07/01 10:50:26;;;;;;;9.85;8.85;;;35.90;96.40;;;;;;2603386;54;20908;31
2022/07/01 10:53:48;;;;;;;12.80;8.20;;;36.00;96.10;;;;;;2621583;46;20913;31
2022/07/01 10:56:41;;;;;;;10.20;8.30;;;36.20;94.80;;;;;;2603040;54;20064;31
2022/07/01 10:59:23;;;;;;;9.95;8.95;;;36.30;95.10;;;;;;2603152;54;20865;31
2022/07/01 11:01:59;;;;;;;11.23;9.23;;;36.50;95.40;;;;;;2701696;39;21395;31
2022/07/01 11:04:39;;;;;;;11.50;8.55;;;36.60;94.60;;;;;;2772778;31;21538;31
2022/07/01 11:07:15;;;;;;;12.68;8.80;;;36.60;94.10;;;;;;2603205;54;20026;31
2022/07/01 11:09:56;;;;;;;9.95;8.60;;;36.60;93.80;;;;;;2621248;46;20912;31
2022/07/01 11:12:33;;;;;;;12.15;8.90;;;36.70;94.80;;;;;;2611357;46;20784;31
2022/07/01 11:15:12;;;;;;;9.85;8.93;;;36.70;94.00;;;;;;2621308;46;20841;31
2022/07/01 11:17:48;;;;;;;9.65;8.75;;;36.50;93.10;;;;;;2621147;46;21034;31
2022/07/01 11:20:25;;;;;;;13.35;9.75;;;36.50;93.50;;;;;;2602929;54;20848;31
2022/07/01 11:23:01;;;;;;;12.10;10.30;;;36.30;93.30;;;;;;2621442;47;20566;31
2022/07/01 11:25:39;;;;;;;11.32;9.65;;;36.20;94.90;;;;;;2616382;47;21275;31
2022/07/01 11:28:14;;;;;;;10.52;8.95;;;36.20;94.50;;;;;;2603098;54;20030;31
2022/07/01 11:30:49;;;;;;;10.10;8.90;;;36.20;94.50;;;;;;2621450;47;20027;31
2022/07/01 11:33:28;;;;;;;12.75;9.40;;;36.20;93.50;;;;;;2620671;47;20858;31
2022/07/01 11:41:41;;;;;;;9.40;8.40;;;36.00;92.90;;;;;;2602848;54;20977;31
2022/07/01 11:44:16;;;;;;;10.35;8.25;;;36.00;93.00;;;;;;2603047;54;19965;31
2022/07/01 11:46:52;;;;;;;13.98;8.73;;;35.90;93.20;;;;;;2621381;47;20592;31
2022/07/01 11:49:28;;;;;;;10.77;9.55;;;35.80;94.00;;;;;;2602924;54;20031;31
2022/07/01 11:52:07;;;;;;;12.83;8.73;;;35.80;94.70;;;;;;2701293;39;20517;31
2022/07/01 11:54:48;;;;;;;15.50;8.50;;;35.60;93.90;;;;;;2603857;54;20246;31
2022/07/01 11:57:27;;;;;;;11.50;8.93;;;35.60;94.70;;;;;;2603675;54;20238;31
2022/07/01 12:00:12;;;;;;;11.20;8.00;;;35.50;94.90;;;;;;2621997;46;20031;31
2022/07/01 12:02:47;;;;;;;14.35;7.20;;;35.20;95.10;;;;;;2603650;54;20247;31
2022/07/01 12:05:24;;;;;;;13.07;5.85;;;34.90;94.60;;;;;;2603664;54;20060;31
2022/07/01 12:07:59;;;;;;;17.15;5.75;;;34.30;94.50;;;;;;2603747;54;20727;31
2022/07/01 12:10:33;;;;;;;8.32;5.18;;;33.80;94.90;;;;;;2603648;54;20144;31
2022/07/01 12:13:29;;;;;;;12.00;5.80;;;33.20;95.20;;;;;;2603535;54;20023;31
2022/07/01 12:16:12;;;;;;;8.57;5.78;;;32.60;95.90;;;;;;2603798;54;20038;31
2022/07/01 12:18:47;;;;;;;7.47;5.10;;;32.20;96.60;;;;;;2621887;46;20733;31
2022/07/01 12:21:23;;;;;;;6.28;5.28;;;31.60;97.10;;;;;;2603555;54;20878;31
2022/07/01 12:24:22;;;;;;;8.02;5.63;;;31.20;97.90;;;;;;2603625;54;20026;31
2022/07/01 12:27:05;;;;;;;9.20;5.65;;;30.80;98.70;;;;;;2621650;46;20037;31
2022/07/01 12:30:07;;;;;;;9.15;5.80;;;30.70;99.30;;;;;;2621821;46;20103;31
2022/07/01 12:32:44;;;;;;;7.40;5.90;;;30.50;99.50;;;;;;2603152;54;21153;31
2022/07/01 12:35:38;;;;;;;8.37;6.20;;;30.30;99.90;;;;;;2615824;46;20049;31
2022/07/01 12:38:19;;;;;;;10.02;5.75;;;30.20;99.90;;;;;;2621447;46;20918;31
2022/07/01 12:40:55;;;;;;;8.68;6.50;;;29.80;99.90;;;;;;2603267;54;20035;31
2022/07/01 12:43:37;;;;;;;8.13;6.07;;;29.60;99.90;;;;;;2602434;54;20018;31
2022/07/01 12:46:18;;;;;;;7.63;5.60;;;29.40;99.90;;;;;;2603129;54;20781;31
2022/07/01 12:48:52;;;;;;;8.45;6.00;;;29.20;99.90;;;;;;2603036;54;20031;31
2022/07/01 12:51:34;;;;;;;8.70;5.10;;;29.00;99.90;;;;;;2603110;54;20030;31
2022/07/01 12:54:10;;;;;;;7.82;5.45;;;28.90;99.90;;;;;;2603276;54;20026;31
2022/07/01 12:56:48;;;;;;;7.10;5.70;;;28.80;99.90;;;;;;2603014;54;20781;31
2022/07/01 12:59:24;;;;;;;7.20;5.50;;;28.60;99.90;;;;;;2603200;54;20846;31
2022/07/01 13:02:02;;;;;;;6.72;6.03;;;28.50;99.90;;;;;;2603175;54;20027;31
2022/07/01 13:04:39;;;;;;;6.68;5.72;;;28.50;99.90;;;;;;2603046;54;20876;31
2022/07/01 13:09:53;;;;;;;8.25;5.65;;;28.20;99.90;;;;;;2602988;54;20772;31
2022/07/01 13:12:29;;;;;;;7.28;6.18;;;28.20;99.90;;;;;;2602826;54;20027;31
2022/07/01 13:15:04;;;;;;;;;;;28.10;99.90;;;;;;2602975;54;20648;31
2022/07/01 13:17:42;;;;;;;6.82;5.90;;;28.10;99.90;;;;;;2602956;54;19946;31
2022/07/01 13:20:17;;;;;;;8.07;6.18;;;27.90;99.90;;;;;;2603001;54;20045;31
2022/07/01 13:22:54;;;;;;;9.10;7.10;;;27.80;99.90;;;;;;2602981;54;20056;31
2022/07/01 13:25:32;;;;;;;7.93;6.72;;;27.60;99.90;;;;;;2621512;46;20048;31
2022/07/01 13:28:06;;;;;;;9.07;6.40;;;27.50;99.90;;;;;;2603251;54;20585;31
2022/07/01 13:30:42;;;;;;;10.32;6.70;;;27.40;99.90;;;;;;2603072;54;20901;31
2022/07/01 13:33:21;;;;;;;9.88;7.18;;;27.20;99.90;;;;;;2603152;54;20596;31
2022/07/01 13:35:58;;;;;;;9.43;6.55;;;27.30;99.90;;;;;;2602973;54;20922;31
2022/07/01 13:38:34;;;;;;;8.25;5.55;;;27.20;99.90;;;;;;2602925;54;20071;31
2022/07/01 13:41:10;;;;;;;7.40;6.25;;;27.10;99.90;;;;;;2603118;54;21086;31
2022/07/01 13:43:48;;;;;;;7.97;6.32;;;27.00;99.90;;;;;;2602394;54;20931;31
2022/07/01 13:46:23;;;;;;;7.10;6.38;;;27.00;99.90;;;;;;2602073;54;20842;31
2022/07/01 13:49:02;;;;;;;7.57;6.15;;;26.90;99.90;;;;;;2618054;46;20089;31
2022/07/01 13:51:38;;;;;;;9.52;6.97;;;26.90;99.90;;;;;;2601704;54;20928;31
2022/07/01 13:54:17;;;;;;;14.32;7.15;;;26.80;99.90;;;;;;2602234;54;20034;31
2022/07/01 13:56:52;;;;;;;7.90;6.90;;;26.70;99.90;;;;;;2617007;46;20089;31